Terminal Aerodrome Forecast
Issued by NWS Tulsa, OK

Home | Current Version | Previous Version | Text Only | Print | Product List | Glossary On
Versions: 1 2 3 4 5 6 7 8 9 10 11 12 13 14 15
407
FTUS44 KTSA 181739
TAFTUL
TAF
KTUL 181739Z 1818/1918 15005KT P6SM OVC040
     FM190000 15003KT P6SM OVC020
     FM190700 15004KT 3SM BR OVC005
     FM191700 16008KT P6SM BKN015=

USA.gov is the U.S. government's official web portal to all federal, state and local government web resources and services.